sensor_id;sensor_type;location;lat;lon;timestamp;P1;durP1;ratioP1;P2;durP2;ratioP2
14001;SDS011;7076;51.280;12.584;2024-02-04T00:03:25;1.90;;;1.70;;
14001;SDS011;7076;51.280;12.584;2024-02-04T00:08:30;2.00;;;1.73;;
14001;SDS011;7076;51.280;12.584;2024-02-04T00:13:33;2.53;;;1.73;;
14001;SDS011;7076;51.280;12.584;2024-02-04T00:18:36;2.20;;;2.00;;
14001;SDS011;7076;51.280;12.584;2024-02-04T00:23:41;2.30;;;2.10;;
14001;SDS011;7076;51.280;12.584;2024-02-04T00:28:43;2.38;;;2.17;;
14001;SDS011;7076;51.280;12.584;2024-02-04T00:33:46;2.45;;;2.17;;
14001;SDS011;7076;51.280;12.584;2024-02-04T00:38:51;3.28;;;2.08;;
14001;SDS011;7076;51.280;12.584;2024-02-04T00:43:53;2.05;;;1.85;;
14001;SDS011;7076;51.280;12.584;2024-02-04T00:48:56;2.60;;;2.25;;
14001;SDS011;7076;51.280;12.584;2024-02-04T00:54:01;2.40;;;1.90;;
14001;SDS011;7076;51.280;12.584;2024-02-04T00:59:04;2.20;;;2.00;;
14001;SDS011;7076;51.280;12.584;2024-02-04T01:04:07;3.72;;;2.00;;
14001;SDS011;7076;51.280;12.584;2024-02-04T01:09:12;3.30;;;2.47;;
14001;SDS011;7076;51.280;12.584;2024-02-04T01:14:15;2.97;;;2.40;;
14001;SDS011;7076;51.280;12.584;2024-02-04T01:19:17;3.35;;;2.17;;
14001;SDS011;7076;51.280;12.584;2024-02-04T01:24:22;3.45;;;2.55;;
14001;SDS011;7076;51.280;12.584;2024-02-04T01:29:25;2.65;;;2.33;;
14001;SDS011;7076;51.280;12.584;2024-02-04T01:34:28;2.83;;;2.28;;
14001;SDS011;7076;51.280;12.584;2024-02-04T01:39:32;2.45;;;2.20;;
14001;SDS011;7076;51.280;12.584;2024-02-04T01:44:35;3.42;;;2.20;;
14001;SDS011;7076;51.280;12.584;2024-02-04T01:49:38;1.98;;;1.77;;
14001;SDS011;7076;51.280;12.584;2024-02-04T01:54:43;2.30;;;2.10;;
14001;SDS011;7076;51.280;12.584;2024-02-04T01:59:46;2.50;;;2.20;;
14001;SDS011;7076;51.280;12.584;2024-02-04T02:04:50;3.35;;;2.00;;
14001;SDS011;7076;51.280;12.584;2024-02-04T02:09:54;3.20;;;2.35;;
14001;SDS011;7076;51.280;12.584;2024-02-04T02:14:59;3.25;;;2.40;;
14001;SDS011;7076;51.280;12.584;2024-02-04T02:20:11;4.72;;;3.00;;
14001;SDS011;7076;51.280;12.584;2024-02-04T02:25:20;6.38;;;3.28;;
14001;SDS011;7076;51.280;12.584;2024-02-04T02:30:24;3.30;;;2.90;;
14001;SDS011;7076;51.280;12.584;2024-02-04T02:35:27;5.55;;;3.28;;
14001;SDS011;7076;51.280;12.584;2024-02-04T02:40:33;5.28;;;3.20;;
14001;SDS011;7076;51.280;12.584;2024-02-04T02:45:41;4.10;;;2.95;;
14001;SDS011;7076;51.280;12.584;2024-02-04T02:50:45;4.57;;;2.88;;
14001;SDS011;7076;51.280;12.584;2024-02-04T02:55:49;3.20;;;2.20;;
14001;SDS011;7076;51.280;12.584;2024-02-04T03:00:52;4.25;;;2.72;;
14001;SDS011;7076;51.280;12.584;2024-02-04T03:05:55;3.10;;;2.10;;
14001;SDS011;7076;51.280;12.584;2024-02-04T03:10:59;4.25;;;2.45;;
14001;SDS011;7076;51.280;12.584;2024-02-04T03:16:02;3.63;;;2.72;;
14001;SDS011;7076;51.280;12.584;2024-02-04T03:21:11;3.33;;;2.25;;
14001;SDS011;7076;51.280;12.584;2024-02-04T03:26:17;3.10;;;2.00;;
14001;SDS011;7076;51.280;12.584;2024-02-04T03:31:22;2.67;;;1.98;;
14001;SDS011;7076;51.280;12.584;2024-02-04T03:36:26;3.45;;;2.10;;
14001;SDS011;7076;51.280;12.584;2024-02-04T03:41:31;2.97;;;2.28;;
14001;SDS011;7076;51.280;12.584;2024-02-04T03:46:34;2.92;;;2.20;;
14001;SDS011;7076;51.280;12.584;2024-02-04T03:51:38;2.17;;;1.88;;
14001;SDS011;7076;51.280;12.584;2024-02-04T03:56:42;3.53;;;2.10;;
14001;SDS011;7076;51.280;12.584;2024-02-04T04:01:46;2.85;;;2.00;;
14001;SDS011;7076;51.280;12.584;2024-02-04T04:06:51;2.47;;;1.77;;
14001;SDS011;7076;51.280;12.584;2024-02-04T04:11:55;2.33;;;1.77;;
14001;SDS011;7076;51.280;12.584;2024-02-04T04:16:58;2.13;;;1.67;;
14001;SDS011;7076;51.280;12.584;2024-02-04T04:22:01;2.92;;;2.28;;
14001;SDS011;7076;51.280;12.584;2024-02-04T04:27:05;3.38;;;2.13;;
14001;SDS011;7076;51.280;12.584;2024-02-04T04:32:08;2.33;;;2.13;;
14001;SDS011;7076;51.280;12.584;2024-02-04T04:37:11;1.98;;;1.77;;
14001;SDS011;7076;51.280;12.584;2024-02-04T04:42:15;3.00;;;2.05;;
14001;SDS011;7076;51.280;12.584;2024-02-04T04:47:18;5.22;;;2.58;;
14001;SDS011;7076;51.280;12.584;2024-02-04T04:52:21;3.13;;;2.65;;
14001;SDS011;7076;51.280;12.584;2024-02-04T04:57:25;4.22;;;2.63;;
14001;SDS011;7076;51.280;12.584;2024-02-04T05:02:28;3.10;;;2.45;;
14001;SDS011;7076;51.280;12.584;2024-02-04T05:07:31;3.67;;;2.50;;
14001;SDS011;7076;51.280;12.584;2024-02-04T05:12:42;2.42;;;2.10;;
14001;SDS011;7076;51.280;12.584;2024-02-04T05:17:45;3.78;;;2.45;;
14001;SDS011;7076;51.280;12.584;2024-02-04T05:22:48;2.22;;;1.80;;
14001;SDS011;7076;51.280;12.584;2024-02-04T05:27:52;2.97;;;2.05;;
14001;SDS011;7076;51.280;12.584;2024-02-04T05:32:55;3.03;;;2.08;;
14001;SDS011;7076;51.280;12.584;2024-02-04T05:37:58;2.88;;;1.95;;
14001;SDS011;7076;51.280;12.584;2024-02-04T05:43:02;3.30;;;2.42;;
14001;SDS011;7076;51.280;12.584;2024-02-04T05:48:12;3.42;;;2.70;;
14001;SDS011;7076;51.280;12.584;2024-02-04T05:53:16;3.65;;;2.30;;
14001;SDS011;7076;51.280;12.584;2024-02-04T05:58:20;4.53;;;2.35;;
14001;SDS011;7076;51.280;12.584;2024-02-04T06:03:23;4.78;;;2.60;;
14001;SDS011;7076;51.280;12.584;2024-02-04T06:08:29;4.68;;;2.60;;
14001;SDS011;7076;51.280;12.584;2024-02-04T06:13:33;3.10;;;2.28;;
14001;SDS011;7076;51.280;12.584;2024-02-04T06:18:36;3.85;;;2.60;;
14001;SDS011;7076;51.280;12.584;2024-02-04T06:23:39;4.97;;;2.28;;
14001;SDS011;7076;51.280;12.584;2024-02-04T06:28:43;3.25;;;2.17;;
14001;SDS011;7076;51.280;12.584;2024-02-04T06:33:48;2.17;;;1.95;;
14001;SDS011;7076;51.280;12.584;2024-02-04T06:38:51;2.15;;;1.60;;
14001;SDS011;7076;51.280;12.584;2024-02-04T06:43:55;2.20;;;1.50;;
14001;SDS011;7076;51.280;12.584;2024-02-04T06:48:58;1.50;;;1.38;;
14001;SDS011;7076;51.280;12.584;2024-02-04T06:54:01;3.15;;;0.85;;
14001;SDS011;7076;51.280;12.584;2024-02-04T06:59:05;0.70;;;0.70;;
14001;SDS011;7076;51.280;12.584;2024-02-04T07:04:08;1.25;;;0.57;;
14001;SDS011;7076;51.280;12.584;2024-02-04T07:09:11;0.63;;;0.63;;
14001;SDS011;7076;51.280;12.584;2024-02-04T07:14:16;0.60;;;0.60;;
14001;SDS011;7076;51.280;12.584;2024-02-04T07:19:18;1.58;;;0.70;;
14001;SDS011;7076;51.280;12.584;2024-02-04T07:24:21;0.40;;;0.40;;
14001;SDS011;7076;51.280;12.584;2024-02-04T07:29:26;0.50;;;0.50;;
14001;SDS011;7076;51.280;12.584;2024-02-04T07:34:28;0.40;;;0.40;;
14001;SDS011;7076;51.280;12.584;2024-02-04T07:39:31;0.73;;;0.65;;
14001;SDS011;7076;51.280;12.584;2024-02-04T07:44:35;0.50;;;0.50;;
14001;SDS011;7076;51.280;12.584;2024-02-04T07:49:38;0.50;;;0.50;;
14001;SDS011;7076;51.280;12.584;2024-02-04T07:54:41;0.60;;;0.50;;
14001;SDS011;7076;51.280;12.584;2024-02-04T07:59:46;0.30;;;0.30;;
14001;SDS011;7076;51.280;12.584;2024-02-04T08:04:49;1.20;;;0.40;;
14001;SDS011;7076;51.280;12.584;2024-02-04T08:09:52;0.50;;;0.50;;
14001;SDS011;7076;51.280;12.584;2024-02-04T08:14:56;1.08;;;0.50;;
14001;SDS011;7076;51.280;12.584;2024-02-04T08:19:59;0.40;;;0.40;;
14001;SDS011;7076;51.280;12.584;2024-02-04T08:25:03;1.65;;;0.45;;
14001;SDS011;7076;51.280;12.584;2024-02-04T08:30:09;0.35;;;0.35;;
14001;SDS011;7076;51.280;12.584;2024-02-04T08:35:13;0.40;;;0.40;;
14001;SDS011;7076;51.280;12.584;2024-02-04T08:40:16;0.40;;;0.40;;
14001;SDS011;7076;51.280;12.584;2024-02-04T08:45:20;0.63;;;0.50;;
14001;SDS011;7076;51.280;12.584;2024-02-04T08:50:23;2.17;;;1.92;;
14001;SDS011;7076;51.280;12.584;2024-02-04T08:55:26;1.05;;;0.43;;
14001;SDS011;7076;51.280;12.584;2024-02-04T09:00:30;1.10;;;0.40;;
14001;SDS011;7076;51.280;12.584;2024-02-04T09:05:33;0.50;;;0.50;;
14001;SDS011;7076;51.280;12.584;2024-02-04T09:10:36;0.50;;;0.50;;
14001;SDS011;7076;51.280;12.584;2024-02-04T09:15:40;0.40;;;0.40;;
14001;SDS011;7076;51.280;12.584;2024-02-04T09:20:43;0.50;;;0.50;;
14001;SDS011;7076;51.280;12.584;2024-02-04T09:25:46;0.55;;;0.50;;
14001;SDS011;7076;51.280;12.584;2024-02-04T09:30:50;0.68;;;0.68;;
14001;SDS011;7076;51.280;12.584;2024-02-04T09:35:53;0.70;;;0.70;;
14001;SDS011;7076;51.280;12.584;2024-02-04T09:40:57;0.57;;;0.57;;
14001;SDS011;7076;51.280;12.584;2024-02-04T09:46:03;0.80;;;0.77;;
14001;SDS011;7076;51.280;12.584;2024-02-04T09:51:07;0.88;;;0.73;;
14001;SDS011;7076;51.280;12.584;2024-02-04T09:56:10;0.93;;;0.85;;
14001;SDS011;7076;51.280;12.584;2024-02-04T10:01:18;1.88;;;1.40;;
14001;SDS011;7076;51.280;12.584;2024-02-04T10:06:22;1.25;;;1.13;;
14001;SDS011;7076;51.280;12.584;2024-02-04T10:11:25;1.30;;;1.20;;
14001;SDS011;7076;51.280;12.584;2024-02-04T10:16:29;1.50;;;1.40;;
14001;SDS011;7076;51.280;12.584;2024-02-04T10:21:33;4.40;;;1.63;;
14001;SDS011;7076;51.280;12.584;2024-02-04T10:26:36;2.83;;;1.50;;
14001;SDS011;7076;51.280;12.584;2024-02-04T10:31:43;2.22;;;1.13;;
14001;SDS011;7076;51.280;12.584;2024-02-04T10:36:46;1.40;;;1.00;;
14001;SDS011;7076;51.280;12.584;2024-02-04T10:41:49;2.03;;;0.88;;
14001;SDS011;7076;51.280;12.584;2024-02-04T10:46:55;0.70;;;0.70;;
14001;SDS011;7076;51.280;12.584;2024-02-04T10:51:59;1.13;;;0.95;;
14001;SDS011;7076;51.280;12.584;2024-02-04T10:57:05;3.55;;;0.82;;
14001;SDS011;7076;51.280;12.584;2024-02-04T11:02:10;0.80;;;0.80;;
14001;SDS011;7076;51.280;12.584;2024-02-04T11:07:13;1.02;;;1.02;;
14001;SDS011;7076;51.280;12.584;2024-02-04T11:12:18;1.67;;;1.48;;
14001;SDS011;7076;51.280;12.584;2024-02-04T11:17:28;1.92;;;1.73;;
14001;SDS011;7076;51.280;12.584;2024-02-04T11:22:44;2.60;;;1.83;;
14001;SDS011;7076;51.280;12.584;2024-02-04T11:27:54;2.10;;;1.90;;
14001;SDS011;7076;51.280;12.584;2024-02-04T11:33:01;2.30;;;1.90;;
14001;SDS011;7076;51.280;12.584;2024-02-04T11:38:05;2.30;;;2.00;;
14001;SDS011;7076;51.280;12.584;2024-02-04T11:43:10;2.20;;;2.00;;
14001;SDS011;7076;51.280;12.584;2024-02-04T11:48:15;2.17;;;1.80;;
14001;SDS011;7076;51.280;12.584;2024-02-04T11:53:18;2.58;;;2.17;;
14001;SDS011;7076;51.280;12.584;2024-02-04T11:58:21;1.90;;;1.80;;
14001;SDS011;7076;51.280;12.584;2024-02-04T12:03:29;2.92;;;1.70;;
14001;SDS011;7076;51.280;12.584;2024-02-04T12:08:33;2.28;;;2.00;;
14001;SDS011;7076;51.280;12.584;2024-02-04T12:13:35;2.53;;;1.88;;
14001;SDS011;7076;51.280;12.584;2024-02-04T12:18:50;2.42;;;2.13;;
14001;SDS011;7076;51.280;12.584;2024-02-04T12:23:54;2.42;;;1.58;;
14001;SDS011;7076;51.280;12.584;2024-02-04T12:28:57;3.35;;;2.10;;
14001;SDS011;7076;51.280;12.584;2024-02-04T12:34:02;2.40;;;2.20;;
14001;SDS011;7076;51.280;12.584;2024-02-04T12:39:05;4.22;;;2.50;;
14001;SDS011;7076;51.280;12.584;2024-02-04T12:44:17;2.75;;;1.95;;
14001;SDS011;7076;51.280;12.584;2024-02-04T12:49:22;2.20;;;1.98;;
14001;SDS011;7076;51.280;12.584;2024-02-04T12:54:25;2.78;;;1.80;;
14001;SDS011;7076;51.280;12.584;2024-02-04T12:59:28;2.13;;;1.92;;
14001;SDS011;7076;51.280;12.584;2024-02-04T13:04:37;1.65;;;1.55;;
14001;SDS011;7076;51.280;12.584;2024-02-04T13:09:40;2.80;;;1.23;;
14001;SDS011;7076;51.280;12.584;2024-02-04T13:14:43;1.67;;;1.20;;
14001;SDS011;7076;51.280;12.584;2024-02-04T13:19:48;2.00;;;1.33;;
14001;SDS011;7076;51.280;12.584;2024-02-04T13:24:51;1.30;;;1.20;;
14001;SDS011;7076;51.280;12.584;2024-02-04T13:29:54;1.73;;;1.60;;
14001;SDS011;7076;51.280;12.584;2024-02-04T13:34:58;2.45;;;1.20;;
14001;SDS011;7076;51.280;12.584;2024-02-04T13:40:14;2.25;;;1.60;;
14001;SDS011;7076;51.280;12.584;2024-02-04T13:45:17;2.17;;;1.50;;
14001;SDS011;7076;51.280;12.584;2024-02-04T13:50:22;1.35;;;1.25;;
14001;SDS011;7076;51.280;12.584;2024-02-04T13:55:25;1.92;;;1.50;;
14001;SDS011;7076;51.280;12.584;2024-02-04T14:00:28;4.35;;;1.60;;
14001;SDS011;7076;51.280;12.584;2024-02-04T14:05:32;1.60;;;1.30;;
14001;SDS011;7076;51.280;12.584;2024-02-04T14:10:36;2.53;;;1.13;;
14001;SDS011;7076;51.280;12.584;2024-02-04T14:15:39;2.25;;;1.40;;
14001;SDS011;7076;51.280;12.584;2024-02-04T14:20:44;2.50;;;1.27;;
14001;SDS011;7076;51.280;12.584;2024-02-04T14:25:47;2.00;;;1.10;;
14001;SDS011;7076;51.280;12.584;2024-02-04T14:30:50;1.10;;;1.00;;
14001;SDS011;7076;51.280;12.584;2024-02-04T14:35:58;1.60;;;0.98;;
14001;SDS011;7076;51.280;12.584;2024-02-04T14:41:01;2.65;;;1.55;;
14001;SDS011;7076;51.280;12.584;2024-02-04T14:46:04;1.33;;;1.10;;
14001;SDS011;7076;51.280;12.584;2024-02-04T14:51:11;1.00;;;0.90;;
14001;SDS011;7076;51.280;12.584;2024-02-04T14:56:14;0.88;;;0.88;;
14001;SDS011;7076;51.280;12.584;2024-02-04T15:01:18;2.75;;;1.30;;
14001;SDS011;7076;51.280;12.584;2024-02-04T15:06:24;1.23;;;1.10;;
14001;SDS011;7076;51.280;12.584;2024-02-04T15:11:27;1.02;;;0.93;;
14001;SDS011;7076;51.280;12.584;2024-02-04T15:16:32;3.83;;;1.42;;
14001;SDS011;7076;51.280;12.584;2024-02-04T15:21:37;1.52;;;1.20;;
14001;SDS011;7076;51.280;12.584;2024-02-04T15:26:41;2.45;;;1.40;;
14001;SDS011;7076;51.280;12.584;2024-02-04T15:31:45;2.70;;;1.10;;
14001;SDS011;7076;51.280;12.584;2024-02-04T15:36:52;0.95;;;0.95;;
14001;SDS011;7076;51.280;12.584;2024-02-04T15:41:54;3.22;;;1.10;;
14001;SDS011;7076;51.280;12.584;2024-02-04T15:46:58;1.05;;;0.95;;
14001;SDS011;7076;51.280;12.584;2024-02-04T15:52:03;1.20;;;1.10;;
14001;SDS011;7076;51.280;12.584;2024-02-04T15:57:08;1.83;;;0.98;;
14001;SDS011;7076;51.280;12.584;2024-02-04T16:02:11;1.30;;;1.20;;
14001;SDS011;7076;51.280;12.584;2024-02-04T16:07:16;1.17;;;1.13;;
14001;SDS011;7076;51.280;12.584;2024-02-04T16:12:21;2.35;;;1.25;;
14001;SDS011;7076;51.280;12.584;2024-02-04T16:17:25;3.40;;;1.67;;
14001;SDS011;7076;51.280;12.584;2024-02-04T16:22:29;1.33;;;1.23;;
14001;SDS011;7076;51.280;12.584;2024-02-04T16:27:32;1.70;;;1.60;;
14001;SDS011;7076;51.280;12.584;2024-02-04T16:32:35;2.10;;;1.48;;
14001;SDS011;7076;51.280;12.584;2024-02-04T16:37:39;1.65;;;1.23;;
14001;SDS011;7076;51.280;12.584;2024-02-04T16:42:42;3.15;;;1.50;;
14001;SDS011;7076;51.280;12.584;2024-02-04T16:47:45;1.23;;;1.13;;
14001;SDS011;7076;51.280;12.584;2024-02-04T16:52:50;4.53;;;1.60;;
14001;SDS011;7076;51.280;12.584;2024-02-04T16:57:53;2.38;;;1.50;;
14001;SDS011;7076;51.280;12.584;2024-02-04T17:02:56;4.97;;;1.67;;
14001;SDS011;7076;51.280;12.584;2024-02-04T17:08:01;2.88;;;1.75;;
14001;SDS011;7076;51.280;12.584;2024-02-04T17:13:05;2.17;;;1.77;;
14001;SDS011;7076;51.280;12.584;2024-02-04T17:18:09;1.70;;;1.60;;
14001;SDS011;7076;51.280;12.584;2024-02-04T17:23:16;2.72;;;1.80;;
14001;SDS011;7076;51.280;12.584;2024-02-04T17:28:20;2.25;;;1.85;;
14001;SDS011;7076;51.280;12.584;2024-02-04T17:33:23;5.30;;;2.17;;
14001;SDS011;7076;51.280;12.584;2024-02-04T17:38:28;3.10;;;2.42;;
14001;SDS011;7076;51.280;12.584;2024-02-04T17:43:31;3.53;;;2.20;;
14001;SDS011;7076;51.280;12.584;2024-02-04T17:48:34;2.72;;;2.20;;
14001;SDS011;7076;51.280;12.584;2024-02-04T17:53:39;2.30;;;1.98;;
14001;SDS011;7076;51.280;12.584;2024-02-04T17:58:44;3.20;;;2.33;;
14001;SDS011;7076;51.280;12.584;2024-02-04T18:03:49;3.55;;;2.40;;
14001;SDS011;7076;51.280;12.584;2024-02-04T18:08:54;7.38;;;2.35;;
14001;SDS011;7076;51.280;12.584;2024-02-04T18:13:57;3.10;;;2.60;;
14001;SDS011;7076;51.280;12.584;2024-02-04T18:19:03;2.45;;;2.00;;
14001;SDS011;7076;51.280;12.584;2024-02-04T18:24:08;4.18;;;2.50;;
14001;SDS011;7076;51.280;12.584;2024-02-04T18:29:11;4.82;;;3.03;;
14001;SDS011;7076;51.280;12.584;2024-02-04T18:34:14;3.70;;;2.70;;
14001;SDS011;7076;51.280;12.584;2024-02-04T18:39:18;2.90;;;2.58;;
14001;SDS011;7076;51.280;12.584;2024-02-04T18:44:21;2.88;;;2.50;;
14001;SDS011;7076;51.280;12.584;2024-02-04T18:49:24;6.05;;;2.90;;
14001;SDS011;7076;51.280;12.584;2024-02-04T18:54:29;4.55;;;2.58;;
14001;SDS011;7076;51.280;12.584;2024-02-04T18:59:33;2.92;;;2.47;;
14001;SDS011;7076;51.280;12.584;2024-02-04T19:04:37;3.17;;;2.63;;
14001;SDS011;7076;51.280;12.584;2024-02-04T19:09:41;3.67;;;2.45;;
14001;SDS011;7076;51.280;12.584;2024-02-04T19:14:44;3.88;;;2.80;;
14001;SDS011;7076;51.280;12.584;2024-02-04T19:19:47;3.85;;;2.85;;
14001;SDS011;7076;51.280;12.584;2024-02-04T19:24:52;3.08;;;2.78;;
14001;SDS011;7076;51.280;12.584;2024-02-04T19:29:55;3.83;;;2.60;;
14001;SDS011;7076;51.280;12.584;2024-02-04T19:34:58;2.90;;;2.53;;
14001;SDS011;7076;51.280;12.584;2024-02-04T19:40:03;3.58;;;2.38;;
14001;SDS011;7076;51.280;12.584;2024-02-04T19:45:08;4.57;;;2.20;;
14001;SDS011;7076;51.280;12.584;2024-02-04T19:50:12;2.33;;;1.90;;
14001;SDS011;7076;51.280;12.584;2024-02-04T19:55:16;3.00;;;2.30;;
14001;SDS011;7076;51.280;12.584;2024-02-04T20:00:19;2.42;;;1.63;;
14001;SDS011;7076;51.280;12.584;2024-02-04T20:05:22;2.88;;;1.27;;
14001;SDS011;7076;51.280;12.584;2024-02-04T20:10:26;1.23;;;1.13;;
14001;SDS011;7076;51.280;12.584;2024-02-04T20:15:29;2.63;;;1.65;;
14001;SDS011;7076;51.280;12.584;2024-02-04T20:20:32;1.98;;;1.75;;
14001;SDS011;7076;51.280;12.584;2024-02-04T20:25:36;2.80;;;1.90;;
14001;SDS011;7076;51.280;12.584;2024-02-04T20:30:41;2.13;;;1.90;;
14001;SDS011;7076;51.280;12.584;2024-02-04T20:35:44;2.67;;;2.20;;
14001;SDS011;7076;51.280;12.584;2024-02-04T20:40:52;2.20;;;1.95;;
14001;SDS011;7076;51.280;12.584;2024-02-04T20:45:55;3.42;;;2.40;;
14001;SDS011;7076;51.280;12.584;2024-02-04T20:51:00;2.15;;;1.77;;
14001;SDS011;7076;51.280;12.584;2024-02-04T20:56:06;2.05;;;1.80;;
14001;SDS011;7076;51.280;12.584;2024-02-04T21:01:09;1.30;;;1.15;;
14001;SDS011;7076;51.280;12.584;2024-02-04T21:06:14;1.30;;;1.00;;
14001;SDS011;7076;51.280;12.584;2024-02-04T21:11:19;1.00;;;1.00;;
14001;SDS011;7076;51.280;12.584;2024-02-04T21:16:23;1.08;;;1.02;;
14001;SDS011;7076;51.280;12.584;2024-02-04T21:21:26;1.40;;;1.30;;
14001;SDS011;7076;51.280;12.584;2024-02-04T21:26:30;1.40;;;1.27;;
14001;SDS011;7076;51.280;12.584;2024-02-04T21:31:33;1.42;;;1.17;;
14001;SDS011;7076;51.280;12.584;2024-02-04T21:36:36;1.30;;;1.20;;
14001;SDS011;7076;51.280;12.584;2024-02-04T21:41:40;1.20;;;1.10;;
14001;SDS011;7076;51.280;12.584;2024-02-04T21:46:44;1.23;;;1.00;;
14001;SDS011;7076;51.280;12.584;2024-02-04T21:51:48;1.50;;;0.90;;
14001;SDS011;7076;51.280;12.584;2024-02-04T21:56:52;1.10;;;1.00;;
14001;SDS011;7076;51.280;12.584;2024-02-04T22:01:55;0.65;;;0.65;;
14001;SDS011;7076;51.280;12.584;2024-02-04T22:06:59;0.60;;;0.60;;
14001;SDS011;7076;51.280;12.584;2024-02-04T22:12:04;0.50;;;0.50;;
14001;SDS011;7076;51.280;12.584;2024-02-04T22:17:07;0.55;;;0.55;;
14001;SDS011;7076;51.280;12.584;2024-02-04T22:22:11;0.47;;;0.47;;
14001;SDS011;7076;51.280;12.584;2024-02-04T22:27:15;0.70;;;0.70;;
14001;SDS011;7076;51.280;12.584;2024-02-04T22:32:18;0.55;;;0.55;;
14001;SDS011;7076;51.280;12.584;2024-02-04T22:37:21;0.40;;;0.40;;
14001;SDS011;7076;51.280;12.584;2024-02-04T22:42:25;0.30;;;0.30;;
14001;SDS011;7076;51.280;12.584;2024-02-04T22:47:28;0.40;;;0.40;;
14001;SDS011;7076;51.280;12.584;2024-02-04T22:52:31;0.30;;;0.30;;
14001;SDS011;7076;51.280;12.584;2024-02-04T22:57:35;0.40;;;0.40;;
14001;SDS011;7076;51.280;12.584;2024-02-04T23:02:38;0.60;;;0.60;;
14001;SDS011;7076;51.280;12.584;2024-02-04T23:07:41;0.50;;;0.45;;
14001;SDS011;7076;51.280;12.584;2024-02-04T23:12:53;0.30;;;0.30;;
14001;SDS011;7076;51.280;12.584;2024-02-04T23:17:57;0.32;;;0.32;;
14001;SDS011;7076;51.280;12.584;2024-02-04T23:23:00;0.40;;;0.40;;
14001;SDS011;7076;51.280;12.584;2024-02-04T23:28:04;0.40;;;0.40;;
14001;SDS011;7076;51.280;12.584;2024-02-04T23:33:08;0.52;;;0.52;;
14001;SDS011;7076;51.280;12.584;2024-02-04T23:38:13;0.30;;;0.30;;
14001;SDS011;7076;51.280;12.584;2024-02-04T23:43:17;0.40;;;0.40;;
14001;SDS011;7076;51.280;12.584;2024-02-04T23:48:20;0.50;;;0.50;;
14001;SDS011;7076;51.280;12.584;2024-02-04T23:53:23;0.28;;;0.28;;
14001;SDS011;7076;51.280;12.584;2024-02-04T23:58:27;0.30;;;0.30;;
